createdAt,value
2023-04-11T00:03:00.080Z,87.18
2023-04-11T00:08:01.915Z,87.74
2023-04-11T00:13:03.520Z,88.17
2023-04-11T00:18:06.655Z,88.60
2023-04-11T00:23:08.800Z,89.13
2023-04-11T00:28:10.810Z,89.61
2023-04-11T00:33:12.324Z,88.89
2023-04-11T00:38:13.791Z,89.04
2023-04-11T00:43:15.427Z,89.38
2023-04-11T00:48:17.677Z,89.74
2023-04-11T00:53:19.134Z,90.64
2023-04-11T00:58:20.644Z,90.16
2023-04-11T01:03:22.945Z,89.88
2023-04-11T01:08:24.865Z,89.67
2023-04-11T01:13:26.508Z,89.05
2023-04-11T01:18:28.315Z,88.72
2023-04-11T01:23:29.901Z,88.18
2023-04-11T01:28:31.367Z,88.77
2023-04-11T01:33:32.882Z,88.66
2023-04-11T01:38:34.323Z,88.83
2023-04-11T01:43:36.020Z,88.92
2023-04-11T01:48:38.246Z,89.33
2023-04-11T01:53:39.857Z,89.72
2023-04-11T01:58:41.786Z,89.40
2023-04-11T02:03:43.324Z,89.67
2023-04-11T02:08:44.999Z,89.91
2023-04-11T02:13:46.593Z,89.88
2023-04-11T02:18:48.043Z,90.11
2023-04-11T02:23:49.472Z,89.95
2023-04-11T02:28:50.882Z,89.74
2023-04-11T02:33:52.376Z,89.73
2023-04-11T02:38:54.416Z,89.47
2023-04-11T02:43:56.044Z,89.97
2023-04-11T02:48:57.831Z,89.34
2023-04-11T02:53:59.536Z,89.67
2023-04-11T02:59:01.015Z,89.38
2023-04-11T03:04:02.589Z,89.38
2023-04-11T03:09:04.186Z,89.08
2023-04-11T03:14:05.642Z,89.17
2023-04-11T03:19:07.081Z,89.17
2023-04-11T03:24:08.658Z,88.99
2023-04-11T03:29:10.320Z,89.19
2023-04-11T03:34:11.807Z,89.12
2023-04-11T03:39:13.211Z,88.98
2023-04-11T03:44:14.758Z,89.18
2023-04-11T03:49:16.157Z,89.37
2023-04-11T03:54:17.956Z,89.75
2023-04-11T03:59:19.362Z,90.06
2023-04-11T04:04:21.040Z,89.97
2023-04-11T04:09:24.053Z,89.48
2023-04-11T04:14:25.539Z,89.96
2023-04-11T04:19:26.987Z,90.30
2023-04-11T04:24:29.546Z,90.41
2023-04-11T04:29:37.975Z,91.36
2023-04-11T04:34:49.317Z,91.38
2023-04-11T04:39:55.263Z,90.96
2023-04-11T04:44:57.129Z,90.54
2023-04-11T04:49:58.925Z,90.39
2023-04-11T04:55:01.245Z,90.37
2023-04-11T05:00:06.788Z,90.17
2023-04-11T05:05:09.526Z,90.05
2023-04-11T05:10:10.978Z,89.85
2023-04-11T05:15:12.603Z,89.48
2023-04-11T05:20:15.481Z,89.34
2023-04-11T05:25:17.966Z,89.83
2023-04-11T05:30:19.454Z,89.28
2023-04-11T05:35:21.442Z,89.61
2023-04-11T05:40:22.904Z,89.76
2023-04-11T05:45:24.327Z,89.51
2023-04-11T05:50:26.159Z,89.22
2023-04-11T05:55:27.674Z,89.37
2023-04-11T06:00:31.133Z,89.36
2023-04-11T06:05:33.034Z,89.49
2023-04-11T06:10:34.943Z,89.36
2023-04-11T06:15:36.424Z,89.16
2023-04-11T06:20:37.903Z,89.22
2023-04-11T06:25:39.338Z,88.70
2023-04-11T06:30:41.440Z,89.32
2023-04-11T06:35:42.848Z,89.13
2023-04-11T06:40:44.264Z,88.82
2023-04-11T06:45:47.020Z,88.04
2023-04-11T06:50:48.555Z,87.15
2023-04-11T06:55:50.016Z,86.74
2023-04-11T07:00:51.500Z,87.83
2023-04-11T07:05:53.129Z,87.66
2023-04-11T07:10:54.558Z,87.94
2023-04-11T07:15:56.036Z,87.08
2023-04-11T07:20:57.583Z,89.08
2023-04-11T07:25:59.005Z,88.10
2023-04-11T07:31:00.676Z,89.65
2023-04-11T07:36:02.226Z,87.77
2023-04-11T07:41:05.221Z,88.60
2023-04-11T07:46:06.902Z,88.23
2023-04-11T07:51:08.520Z,88.98
2023-04-11T07:56:10.751Z,88.64
2023-04-11T08:01:23.903Z,86.84
2023-04-11T08:06:26.486Z,87.81
2023-04-11T08:11:27.938Z,86.66
2023-04-11T08:16:29.450Z,85.22
2023-04-11T08:21:31.269Z,84.94
2023-04-11T08:26:32.705Z,85.15
2023-04-11T08:31:34.132Z,85.58
2023-04-11T08:36:35.638Z,84.60
2023-04-11T08:41:38.603Z,84.36
2023-04-11T08:46:44.264Z,83.42
2023-04-11T08:51:47.067Z,83.65
2023-04-11T08:56:48.480Z,84.59
2023-04-11T09:01:51.098Z,84.50
2023-04-11T09:07:00.440Z,84.30
2023-04-11T09:12:03.926Z,81.72
2023-04-11T09:17:17.085Z,82.80
2023-04-11T09:22:18.623Z,82.80
2023-04-11T09:27:24.395Z,81.05
2023-04-11T09:32:31.072Z,80.67
2023-04-11T09:37:55.920Z,80.32
2023-04-11T09:42:59.646Z,79.30
2023-04-11T09:48:01.673Z,80.14
2023-04-11T09:53:03.637Z,80.04
2023-04-11T09:58:05.889Z,79.39
2023-04-11T10:03:07.492Z,77.36
2023-04-11T10:08:17.282Z,74.19
2023-04-11T10:13:36.780Z,73.38
2023-04-11T10:18:58.938Z,72.94
2023-04-11T10:24:29.632Z,72.99
2023-04-11T10:29:33.178Z,74.91
2023-04-11T10:34:38.778Z,75.45
2023-04-11T10:39:57.779Z,73.38
2023-04-11T10:45:18.992Z,72.98
2023-04-11T10:50:26.607Z,73.45
2023-04-11T10:55:29.593Z,67.74
2023-04-11T11:00:54.203Z,65.86
2023-04-11T11:06:04.183Z,66.71
2023-04-11T11:11:07.346Z,66.92
2023-04-11T11:16:11.070Z,68.14
2023-04-11T11:21:20.665Z,70.15
2023-04-11T11:26:44.371Z,74.36
2023-04-11T11:31:47.663Z,79.90
2023-04-11T11:36:49.293Z,83.11
2023-04-11T11:41:51.596Z,81.66
2023-04-11T11:47:04.745Z,82.03
2023-04-11T11:52:06.173Z,86.37
2023-04-11T11:57:07.726Z,83.10
2023-04-11T12:02:09.325Z,83.62
2023-04-11T12:07:11.741Z,83.80
2023-04-11T12:12:15.990Z,83.86
2023-04-11T12:17:17.439Z,83.75
2023-04-11T12:22:18.897Z,87.21
2023-04-11T12:27:20.386Z,86.13
2023-04-11T12:32:23.264Z,88.04
2023-04-11T12:37:24.715Z,87.80
2023-04-11T12:42:27.420Z,88.09
2023-04-11T12:47:29.050Z,87.30
2023-04-11T12:52:30.884Z,87.96
2023-04-11T12:57:32.320Z,87.07
2023-04-11T13:02:42.142Z,87.45
2023-04-11T13:07:45.361Z,88.12
2023-04-11T13:12:48.458Z,88.05
2023-04-11T13:17:50.269Z,87.14
2023-04-11T13:22:51.960Z,87.69
2023-04-11T13:27:53.434Z,87.37
2023-04-11T13:32:54.948Z,85.77
2023-04-11T13:37:56.397Z,85.82
2023-04-11T13:42:57.830Z,85.33
2023-04-11T13:47:59.446Z,84.73
2023-04-11T13:53:01.271Z,84.51
2023-04-11T13:58:02.756Z,84.46
2023-04-11T14:03:04.481Z,83.17
2023-04-11T14:08:06.594Z,83.39
2023-04-11T14:13:11.296Z,81.85
2023-04-11T14:18:13.017Z,83.13
2023-04-11T14:23:16.525Z,83.39
2023-04-11T14:28:18.390Z,83.72
2023-04-11T14:33:19.848Z,84.76
2023-04-11T14:38:21.276Z,84.52
2023-04-11T14:43:22.744Z,84.28
2023-04-11T14:48:27.596Z,84.10
2023-04-11T14:53:29.045Z,84.84
2023-04-11T14:58:30.775Z,84.05
2023-04-11T15:03:32.556Z,81.18
2023-04-11T15:08:34.178Z,81.87
2023-04-11T15:13:35.764Z,82.56
2023-04-11T15:18:37.192Z,82.55
2023-04-11T15:23:38.610Z,82.03
2023-04-11T15:28:40.384Z,81.64
2023-04-11T15:33:41.831Z,81.60
2023-04-11T15:38:45.060Z,81.19
2023-04-11T15:43:46.870Z,79.40
2023-04-11T15:48:48.348Z,78.47
2023-04-11T15:53:50.416Z,79.15
2023-04-11T15:58:51.840Z,78.99
2023-04-11T16:03:53.538Z,80.32
2023-04-11T16:08:55.418Z,80.11
2023-04-11T16:13:57.396Z,78.04
2023-04-11T16:18:59.118Z,77.66
2023-04-11T16:24:00.868Z,77.06
2023-04-11T16:29:03.371Z,75.20
2023-04-11T16:34:04.783Z,74.16
2023-04-11T16:39:06.353Z,75.32
2023-04-11T16:44:11.408Z,75.09
2023-04-11T16:49:13.116Z,74.67
2023-04-11T16:54:15.060Z,74.06
2023-04-11T16:59:16.612Z,72.54
2023-04-11T17:04:18.209Z,72.84
2023-04-11T17:09:19.699Z,73.68
2023-04-11T17:14:21.199Z,75.50
2023-04-11T17:19:23.734Z,75.47
2023-04-11T17:24:25.972Z,75.40
2023-04-11T17:29:28.400Z,76.07
2023-04-11T17:34:29.899Z,76.01
2023-04-11T17:39:31.380Z,76.16
2023-04-11T17:44:32.907Z,76.25
2023-04-11T17:49:34.382Z,75.88
2023-04-11T17:54:36.439Z,75.72
2023-04-11T17:59:37.875Z,74.66
2023-04-11T18:04:39.445Z,76.26
2023-04-11T18:09:42.325Z,76.44
2023-04-11T18:14:43.773Z,75.79
2023-04-11T18:19:45.350Z,74.72
2023-04-11T18:24:46.811Z,74.28
2023-04-11T18:29:51.674Z,73.51
2023-04-11T18:34:53.451Z,74.52
2023-04-11T18:39:55.116Z,74.25
2023-04-11T18:44:58.538Z,75.56
2023-04-11T18:50:00.112Z,76.72
2023-04-11T18:55:01.724Z,76.26
2023-04-11T19:00:17.363Z,76.37
2023-04-11T19:05:20.652Z,77.52
2023-04-11T19:10:22.341Z,77.47
2023-04-11T19:15:23.844Z,78.59
2023-04-11T19:20:26.743Z,80.17
2023-04-11T19:25:28.462Z,81.15
2023-04-11T19:30:29.949Z,80.23
2023-04-11T19:35:31.383Z,80.52
2023-04-11T19:40:34.479Z,81.56
2023-04-11T19:45:36.209Z,83.58
2023-04-11T19:50:37.896Z,81.53
2023-04-11T19:55:40.020Z,81.29
2023-04-11T20:00:41.866Z,81.63
2023-04-11T20:05:44.181Z,81.64
2023-04-11T20:10:45.608Z,82.47
2023-04-11T20:15:47.135Z,82.85
2023-04-11T20:20:48.541Z,83.22
2023-04-11T20:25:49.955Z,82.12
2023-04-11T20:30:51.986Z,83.78
2023-04-11T20:35:59.094Z,83.47
2023-04-11T20:41:03.724Z,83.58
2023-04-11T20:46:08.357Z,84.23
2023-04-11T20:51:09.868Z,84.02
2023-04-11T20:56:11.842Z,84.15
2023-04-11T21:01:13.587Z,84.49
2023-04-11T21:06:15.645Z,83.89
2023-04-11T21:11:17.103Z,83.47
2023-04-11T21:16:18.571Z,83.83
2023-04-11T21:21:20.058Z,84.35
2023-04-11T21:26:21.654Z,85.77
2023-04-11T21:31:23.093Z,85.49
2023-04-11T21:36:24.537Z,85.60
2023-04-11T21:41:26.013Z,85.39
2023-04-11T21:46:27.650Z,86.37
2023-04-11T21:51:29.098Z,85.67
2023-04-11T21:56:30.594Z,85.22
2023-04-11T22:01:32.115Z,84.94
2023-04-11T22:06:33.560Z,85.32
2023-04-11T22:11:34.995Z,84.86
2023-04-11T22:16:36.493Z,84.31
2023-04-11T22:21:38.275Z,85.01
2023-04-11T22:26:42.773Z,84.86
2023-04-11T22:31:45.291Z,84.27
2023-04-11T22:36:46.747Z,84.11
2023-04-11T22:41:50.518Z,84.21
2023-04-11T22:46:59.899Z,84.34
2023-04-11T22:52:02.106Z,83.67
2023-04-11T22:57:03.664Z,83.63
2023-04-11T23:02:05.650Z,83.08
2023-04-11T23:07:07.123Z,83.52
2023-04-11T23:12:09.090Z,83.21
2023-04-11T23:17:10.561Z,82.54
2023-04-11T23:22:12.424Z,82.64
2023-04-11T23:27:14.083Z,82.93
2023-04-11T23:32:15.693Z,83.19
2023-04-11T23:37:17.859Z,82.94
2023-04-11T23:42:19.266Z,83.00
2023-04-11T23:47:20.836Z,82.85
2023-04-11T23:52:22.418Z,83.18
2023-04-11T23:57:24.137Z,83.13
